ADDS METAR Data INFO
IDs: Format: Raw Decoded Include TAF

Data at: 0400 UTC 23 Sep 2017

KE11 230355Z AUTO 16007KT 10SM CLR 25/16 A2991 RMK AO2 T02510162
KE11 230335Z AUTO 15008KT 10SM CLR 26/16 A2991 RMK AO2 T02560163
KE11 230315Z AUTO 15008G14KT 10SM CLR 26/16 A2990 RMK AO2 T02590163
KE11 230255Z AUTO 15009G15KT 10SM CLR 26/17 A2990 RMK AO2 T02620165
KE11 230235Z AUTO 15012G15KT 10SM CLR 27/17 A2989 RMK AO2 T02650165
KE11 230215Z AUTO 16012G16KT 10SM CLR 27/17 A2990 RMK AO2 T02670165
KE11 230155Z AUTO 16011G16KT 10SM CLR 27/17 A2989 RMK AO2 T02680165
KE11 230135Z AUTO 16011G18KT 10SM CLR 27/17 A2989 RMK AO2 T02720167
KE11 230115Z AUTO 15010G14KT 10SM CLR 28/17 A2989 RMK AO2 T02750166
KE11 230055Z AUTO 15012G20KT 10SM CLR 28/17 A2988 RMK AO2 T02780166
KE11 230035Z AUTO 15014G20KT 10SM CLR 28/17 A2988 RMK AO2 T02820168
KE11 230015Z AUTO 16015G20KT 10SM CLR 29/17 A2987 RMK AO2 T02850170
KE11 222355Z AUTO 15014G20KT 10SM CLR 29/17 A2987 RMK AO2 T02890166 10325 20289
KE11 222335Z AUTO 16017G24KT 10SM CLR 30/17 A2987 RMK AO2 T03020168
KE11 222315Z AUTO 15014G22KT 10SM CLR 31/17 A2987 RMK AO2 T03060170
KE11 222255Z AUTO 15013G20KT 10SM CLR 31/17 A2987 RMK AO2 T03120165
KE11 222235Z AUTO 16015G20KT 10SM CLR 32/17 A2987 RMK AO2 T03150166
KE11 222215Z AUTO 16015G21KT 10SM CLR 32/17 A2988 RMK AO2 T03200166
KE11 222155Z AUTO 16014G21KT 10SM CLR 32/17 A2989 RMK AO2 T03210168
KE11 222135Z AUTO 17013G21KT 10SM CLR 32/17 A2989 RMK AO2 T03210171
KE11 222115Z AUTO 16014G20KT 10SM SCT050 32/18 A2989 RMK AO2 T03220176
KE11 222055Z AUTO 15015G21KT 10SM CLR 32/18 A2989 RMK AO2 T03230176
KE11 222035Z AUTO 17016G21KT 10SM CLR 32/18 A2990 RMK AO2 T03210177
KE11 222015Z AUTO 17014G20KT 10SM CLR 32/18 A2991 RMK AO2 T03180177
KE11 221955Z AUTO 17012G19KT 10SM CLR 32/18 A2991 RMK AO2 T03180177
KE11 221935Z AUTO 18012G20KT 10SM CLR 32/18 A2991 RMK AO2 T03170180
KE11 221915Z AUTO 16016G20KT 10SM CLR 32/18 A2992 RMK AO2 T03170183
KE11 221855Z AUTO 16014G20KT 10SM CLR 31/18 A2992 RMK AO2 T03080181
KE11 221835Z AUTO 17012G23KT 10SM CLR 30/18 A2993 RMK AO2 T03020182
KE11 221815Z AUTO 18013G21KT 10SM CLR 30/18 A2994 RMK AO2 T02990183
KE11 221755Z AUTO 17013G20KT 10SM CLR 30/18 A2995 RMK AO2 T02980184 10298 20205
KE11 221735Z AUTO 17015G20KT 10SM CLR 29/19 A2995 RMK AO2 T02900185
KE11 221715Z AUTO 17012G20KT 10SM CLR 28/19 A2996 RMK AO2 T02840186
KE11 221655Z AUTO 16014G23KT 10SM CLR 28/19 A2997 RMK AO2 T02800186
KE11 221635Z AUTO 17014G20KT 10SM CLR 27/19 A2997 RMK AO2 T02740185
KE11 221615Z AUTO 18014G20KT 10SM SCT022 SCT027 27/19 A2998 RMK AO2 T02660186
KE11 221555Z AUTO 17016G20KT 10SM SCT020 26/19 A2997 RMK AO2 T02600187
KE11 221535Z AUTO 16015G20KT 10SM SCT016 25/19 A2997 RMK AO2 T02500186
KE11 221515Z AUTO 17014G21KT 10SM SCT016 25/19 A2997 RMK AO2 T02450188
KE11 221455Z AUTO 19014G21KT 10SM BKN012 23/19 A2997 RMK AO2 T02300187
KE11 221435Z AUTO 17015G19KT 10SM OVC012 23/19 A2996 RMK AO2 T02250186
KE11 221415Z AUTO 16016G20KT 10SM OVC012 22/19 A2996 RMK AO2 T02200186
KE11 221355Z AUTO 16012KT 10SM SCT014 22/18 A2996 RMK AO2 T02170183
KE11 221335Z AUTO 16010G18KT 10SM CLR 21/18 A2994 RMK AO2 T02140182
KE11 221315Z AUTO 15009KT 10SM CLR 21/18 A2994 RMK AO2 T02070180
KE11 221255Z AUTO 15008KT 10SM CLR 21/18 A2994 RMK AO2 T02050180
KE11 221235Z AUTO 15007KT 10SM CLR 21/18 A2994 RMK AO2 T02070180
KE11 221215Z AUTO 15007KT 10SM CLR 21/18 A2993 RMK AO2 T02100181
KE11 221155Z AUTO 16007KT 10SM CLR 22/18 A2993 RMK AO2 T02150181 10251 20211
KE11 221135Z AUTO 16010G14KT 10SM CLR 22/18 A2992 RMK AO2 T02150182
KE11 221115Z AUTO 15007KT 10SM CLR 21/18 A2992 RMK AO2 T02110181
KE11 221055Z AUTO 15007KT 10SM CLR 21/18 A2992 RMK AO2 T02130181
KE11 221035Z AUTO 16004KT 10SM CLR 22/18 A2992 RMK AO2 T02150181
KE11 221015Z AUTO 16005KT 10SM CLR 22/18 A2992 RMK AO2 T02190181
KE11 220955Z AUTO 16006KT 10SM CLR 23/18 A2992 RMK AO2 T02250182
KE11 220935Z AUTO 16009KT 10SM CLR 22/18 A2992 RMK AO2 T02240182
KE11 220915Z AUTO 16006KT 10SM CLR 23/18 A2992 RMK AO2 T02250181
KE11 220855Z AUTO 16007KT 10SM CLR 23/18 A2992 RMK AO2 T02280181
KE11 220835Z AUTO 16007KT 10SM CLR 23/18 A2993 RMK AO2 T02300181
KE11 220815Z AUTO 17007KT 10SM CLR 24/18 A2993 RMK AO2 T02350181
KE11 220755Z AUTO 17007KT 10SM CLR 24/18 A2993 RMK AO2 T02370181
KE11 220735Z AUTO 17010KT 10SM CLR 24/18 A2993 RMK AO2 T02410181
KE11 220715Z AUTO 17010KT 10SM CLR 24/18 A2993 RMK AO2 T02430180
KE11 220655Z AUTO 17010G16KT 10SM CLR 25/18 A2993 RMK AO2 T02460180
KE11 220635Z AUTO 17010G16KT 10SM CLR 25/18 A2993 RMK AO2 T02470180
KE11 220615Z AUTO 17010G19KT 10SM CLR 25/18 A2993 RMK AO2 T02480177
KE11 220555Z AUTO 17011G15KT 10SM CLR 25/18 A2993 RMK AO2 T02510175 10330 20251
KE11 220535Z AUTO 17013G20KT 10SM CLR 26/18 A2993 RMK AO2 T02560175
KE11 220515Z AUTO 17012G18KT 10SM CLR 26/17 A2994 RMK AO2 T02600171
KE11 220455Z AUTO 17013G19KT 10SM CLR 26/17 A2993 RMK AO2 T02630169 403640203
KE11 220435Z AUTO 17012G15KT 10SM CLR 27/17 A2993 RMK AO2 T02660165
KE11 220415Z AUTO 17012G18KT 10SM CLR 27/16 A2993 RMK AO2 T02710163
KE11 220355Z AUTO 17014G23KT 10SM CLR 28/16 A2992 RMK AO2 T02750161
KE11 220335Z AUTO 17013G19KT 10SM CLR 28/16 A2992 RMK AO2 T02760155
KE11 220315Z AUTO 16012G18KT 10SM CLR 28/15 A2992 RMK AO2 T02800150
KE11 220255Z AUTO 17011G19KT 10SM CLR 29/15 A2991 RMK AO2 T02850145
KE11 220235Z AUTO 16011G17KT 10SM CLR 29/14 A2991 RMK AO2 T02850143
KE11 220215Z AUTO 16010G15KT 10SM SCT100 29/14 A2990 RMK AO2 T02860143
KE11 220155Z AUTO 16010G17KT 10SM SCT100 29/14 A2989 RMK AO2 T02900140
KE11 220135Z AUTO 16011G17KT 10SM CLR 30/13 A2989 RMK AO2 T02960132
KE11 220115Z AUTO 16012G17KT 10SM CLR 30/14 A2988 RMK AO2 T03020135
KE11 220055Z AUTO 16010KT 10SM CLR 31/13 A2987 RMK AO2 T03080133
KE11 220035Z AUTO 15010G16KT 10SM SCT100 32/14 A2987 RMK AO2 T03160139
KE11 220015Z AUTO 14012G19KT 10SM SCT100 32/14 A2986 RMK AO2 T03240139
KE11 212355Z AUTO 16007G18KT 10SM SCT100 33/14 A2986 RMK AO2 T03270140 10364 20325
KE11 212335Z AUTO 17009G14KT 10SM SCT100 34/11 A2986 RMK AO2 T03440113
KE11 212315Z AUTO 17007KT 10SM CLR 34/11 A2986 RMK AO2 LTG DSNT E T03430109
KE11 212255Z AUTO 19010G17KT 10SM CLR 35/11 A2986 RMK AO2 T03460106
KE11 212235Z AUTO 19008KT 10SM SCT110 36/10 A2986 RMK AO2 T03550098
KE11 212215Z AUTO 17009KT 10SM SCT110 36/09 A2986 RMK AO2 T03560094
KE11 212155Z AUTO 21010G15KT 10SM CLR 36/09 A2987 RMK AO2 T03570087
KE11 212135Z AUTO 18007KT 10SM SCT110 36/09 A2987 RMK AO2 T03580089
KE11 212115Z AUTO 18004KT 10SM SCT110 35/10 A2989 RMK AO2 T03500095
KE11 212055Z AUTO 22007KT 10SM SCT110 35/09 A2989 RMK AO2 T03510091
KE11 212035Z AUTO 15005G16KT 10SM SCT110 36/09 A2990 RMK AO2 T03560092
KE11 212015Z AUTO 21006G14KT 10SM SCT110 36/10 A2991 RMK AO2 T03550095
KE11 211955Z AUTO 16007KT 140V200 10SM CLR 35/11 A2992 RMK AO2 T03510105
KE11 211935Z AUTO 23010KT 10SM CLR 35/10 A2992 RMK AO2 T03480100
KE11 211915Z AUTO 21004G14KT 10SM CLR 35/11 A2993 RMK AO2 T03450105
KE11 211855Z AUTO 17009KT 10SM CLR 34/11 A2995 RMK AO2 T03390110
KE11 211835Z AUTO 22005G15KT 10SM CLR 34/12 A2996 RMK AO2 T03390117
KE11 211815Z AUTO 22009KT 10SM CLR 33/13 A2996 RMK AO2 T03340126
KE11 211755Z AUTO 19007G14KT 10SM SCT120 33/13 A2997 RMK AO2 T03300132 10331 20203
KE11 211735Z AUTO 23011G17KT 10SM SCT120 33/14 A2997 RMK AO2 T03250136
KE11 211715Z AUTO 22010G16KT 10SM CLR 32/14 A2998 RMK AO2 T03210140
KE11 211655Z AUTO 21008G17KT 10SM CLR 32/14 A2998 RMK AO2 T03190141
KE11 211635Z AUTO 22013G17KT 10SM CLR 31/14 A2998 RMK AO2 T03110141
KE11 211615Z AUTO 21010G15KT 10SM CLR 31/14 A2998 RMK AO2 T03070142